createdAt,value
2016-04-15T00:00:12.660Z,0
2016-04-15T00:00:44.441Z,0
2016-04-15T00:01:25.241Z,0
2016-04-15T00:02:25.259Z,0
2016-04-15T00:03:25.277Z,0
2016-04-15T00:04:38.140Z,0
2016-04-15T00:05:31.595Z,0
2016-04-15T00:06:38.207Z,0
2016-04-15T00:07:26.101Z,0
2016-04-15T00:08:25.837Z,0
2016-04-15T00:09:38.122Z,0
2016-04-15T00:10:25.390Z,0
2016-04-15T00:11:38.143Z,0
2016-04-15T00:12:38.146Z,0
2016-04-15T00:13:51.164Z,0
2016-04-15T00:14:44.714Z,0
2016-04-15T00:15:56.747Z,0
2016-04-15T00:16:26.219Z,0
2016-04-15T00:18:38.239Z,0
2016-04-15T00:19:26.227Z,0
2016-04-15T00:20:44.838Z,0
2016-04-15T00:21:26.154Z,0
2016-04-15T00:23:28.190Z,0
2016-04-15T00:23:53.471Z,0
2016-04-15T00:24:40.833Z,0
2016-04-15T00:25:40.977Z,0
2016-04-15T00:26:47.136Z,0
2016-04-15T00:27:41.280Z,0
2016-04-15T00:28:53.563Z,0
2016-04-15T00:29:47.254Z,0
2016-04-15T00:31:06.243Z,0
2016-04-15T00:31:59.962Z,0
2016-04-15T00:33:12.203Z,0
2016-04-15T00:34:12.205Z,0
2016-04-15T00:34:40.908Z,0
2016-04-15T00:35:41.060Z,0
2016-04-15T00:36:47.280Z,0
2016-04-15T00:37:41.190Z,0
2016-04-15T00:39:44.101Z,0
2016-04-15T00:41:09.793Z,0
2016-04-15T00:41:50.387Z,0
2016-04-15T00:43:59.423Z,0
2016-04-15T00:44:59.614Z,0
2016-04-15T00:46:12.214Z,0
2016-04-15T00:47:00.839Z,0
2016-04-15T00:47:59.451Z,0
2016-04-15T00:49:01.470Z,0
2016-04-15T00:49:59.472Z,0
2016-04-15T00:50:59.506Z,0
2016-04-15T00:52:05.777Z,0
2016-04-15T00:52:59.652Z,0
2016-04-15T00:53:59.561Z,0
2016-04-15T00:54:59.594Z,0
2016-04-15T00:56:12.302Z,0
2016-04-15T00:56:59.630Z,0
2016-04-15T00:57:59.602Z,0
2016-04-15T00:59:00.214Z,0
2016-04-15T00:59:59.638Z,0
2016-04-15T01:01:12.394Z,0
2016-04-15T01:02:12.429Z,0
2016-04-15T01:04:15.512Z,0
2016-04-15T01:05:59.765Z,0
2016-04-15T01:06:30.720Z,0
2016-04-15T01:07:38.020Z,0
2016-04-15T01:08:12.351Z,0
2016-04-15T01:09:38.073Z,0
2016-04-15T01:10:12.387Z,0
2016-04-15T01:11:12.437Z,0
2016-04-15T01:12:25.173Z,0
2016-04-15T01:13:18.864Z,0
2016-04-15T01:14:25.179Z,0
2016-04-15T01:15:31.666Z,0
2016-04-15T01:16:12.498Z,0
2016-04-15T01:17:33.125Z,0
2016-04-15T01:18:25.268Z,0
2016-04-15T01:19:38.787Z,0
2016-04-15T01:20:12.555Z,0
2016-04-15T01:21:43.886Z,0
2016-04-15T01:22:12.591Z,0
2016-04-15T01:23:12.453Z,0
2016-04-15T01:24:12.613Z,0
2016-04-15T01:25:12.630Z,0
2016-04-15T01:26:12.650Z,0
2016-04-15T01:27:12.652Z,0
2016-04-15T01:28:12.702Z,0
2016-04-15T01:29:12.642Z,0
2016-04-15T01:30:25.472Z,0
2016-04-15T01:31:25.522Z,0
2016-04-15T01:32:12.774Z,0
2016-04-15T01:33:38.418Z,0
2016-04-15T01:34:12.780Z,0
2016-04-15T01:35:44.080Z,0
2016-04-15T01:36:25.551Z,0
2016-04-15T01:38:12.821Z,0
2016-04-15T01:39:12.824Z,0
2016-04-15T01:40:13.031Z,0
2016-04-15T01:41:12.876Z,0
2016-04-15T01:42:19.208Z,0
2016-04-15T01:43:19.210Z,0
2016-04-15T01:44:25.792Z,0
2016-04-15T01:45:12.935Z,0
2016-04-15T01:46:13.000Z,0
2016-04-15T01:47:12.987Z,0
2016-04-15T01:48:13.598Z,0
2016-04-15T01:49:19.289Z,0
2016-04-15T01:50:13.011Z,0
2016-04-15T01:51:13.044Z,0
2016-04-15T01:52:13.656Z,0
2016-04-15T01:53:13.096Z,0
2016-04-15T01:54:13.114Z,0
2016-04-15T01:55:13.492Z,0
2016-04-15T01:56:19.416Z,0
2016-04-15T01:57:13.202Z,0
2016-04-15T01:58:13.782Z,0
2016-04-15T01:59:13.222Z,0
2016-04-15T02:00:13.178Z,0
2016-04-15T02:01:25.931Z,0
2016-04-15T02:02:13.215Z,0
2016-04-15T02:03:32.514Z,0
2016-04-15T02:04:13.454Z,0
2016-04-15T02:05:13.285Z,0
2016-04-15T02:06:13.304Z,0
2016-04-15T02:07:26.025Z,0
2016-04-15T02:08:19.591Z,0
2016-04-15T02:09:32.546Z,0
2016-04-15T02:10:32.549Z,0
2016-04-15T02:12:10.320Z,0
2016-04-15T02:12:48.570Z,0
2016-04-15T02:13:22.901Z,0
2016-04-15T02:14:47.981Z,0
2016-04-15T02:15:29.468Z,0
2016-04-15T02:16:23.049Z,0
2016-04-15T02:17:35.692Z,0
2016-04-15T02:18:35.820Z,0
2016-04-15T02:19:35.728Z,0
2016-04-15T02:20:23.122Z,0
2016-04-15T02:21:23.625Z,0
2016-04-15T02:22:23.033Z,0
2016-04-15T02:23:23.678Z,0
2016-04-15T02:24:23.086Z,0
2016-04-15T02:25:23.105Z,0
2016-04-15T02:26:23.326Z,0
2016-04-15T02:27:23.266Z,0
2016-04-15T02:28:29.410Z,0
2016-04-15T02:29:23.772Z,0
2016-04-15T02:30:23.196Z,0
2016-04-15T02:31:23.293Z,0
2016-04-15T02:32:29.483Z,0
2016-04-15T02:33:23.235Z,0
2016-04-15T02:34:35.941Z,0
2016-04-15T02:35:23.256Z,0
2016-04-15T02:36:23.259Z,0
2016-04-15T02:37:23.309Z,0
2016-04-15T02:38:23.312Z,0
2016-04-15T02:39:36.080Z,0
2016-04-15T02:40:23.332Z,0
2016-04-15T02:41:23.351Z,0
2016-04-15T02:42:29.635Z,0
2016-04-15T02:43:29.731Z,0
2016-04-15T02:44:23.468Z,0
2016-04-15T02:45:23.439Z,0
2016-04-15T02:46:23.520Z,0
2016-04-15T02:47:29.726Z,0
2016-04-15T02:48:23.526Z,0
2016-04-15T02:49:23.482Z,0
2016-04-15T02:50:25.407Z,0
2016-04-15T02:51:31.206Z,0
2016-04-15T02:52:36.240Z,0
2016-04-15T02:53:26.603Z,0
2016-04-15T02:54:36.308Z,0
2016-04-15T02:55:29.873Z,0
2016-04-15T02:56:23.610Z,0
2016-04-15T02:57:25.113Z,0
2016-04-15T02:58:23.631Z,0
2016-04-15T02:59:23.664Z,0
2016-04-15T03:00:30.027Z,0
2016-04-15T03:01:23.733Z,0
2016-04-15T03:02:23.720Z,0
2016-04-15T03:03:23.754Z,0
2016-04-15T03:04:23.725Z,0
2016-04-15T03:05:23.728Z,0
2016-04-15T03:06:23.777Z,0
2016-04-15T03:07:30.077Z,0
2016-04-15T03:08:36.643Z,0
2016-04-15T03:09:24.832Z,0
2016-04-15T03:10:43.007Z,0
2016-04-15T03:11:30.790Z,0
2016-04-15T03:13:26.609Z,0
2016-04-15T03:13:39.171Z,0
2016-04-15T03:14:39.220Z,0
2016-04-15T03:15:39.223Z,0
2016-04-15T03:16:39.507Z,0
2016-04-15T03:17:45.494Z,0
2016-04-15T03:18:39.356Z,0
2016-04-15T03:19:39.281Z,0
2016-04-15T03:20:39.346Z,0
2016-04-15T03:21:51.896Z,0
2016-04-15T03:22:45.773Z,0
2016-04-15T03:23:51.448Z,0
2016-04-15T03:24:40.779Z,0
2016-04-15T03:26:36.456Z,0
2016-04-15T03:26:49.128Z,0
2016-04-15T03:27:55.458Z,0
2016-04-15T03:29:01.789Z,0
2016-04-15T03:30:01.808Z,0
2016-04-15T03:31:46.095Z,0
2016-04-15T03:32:11.394Z,0
2016-04-15T03:33:11.475Z,0
2016-04-15T03:36:17.968Z,0
2016-04-15T03:37:01.843Z,0
2016-04-15T03:37:36.891Z,0
2016-04-15T03:38:30.566Z,0
2016-04-15T03:40:21.088Z,0
2016-04-15T03:40:33.666Z,0
2016-04-15T03:43:02.437Z,0
2016-04-15T03:43:49.487Z,0
2016-04-15T03:44:36.832Z,0
2016-04-15T03:45:36.867Z,0
2016-04-15T03:46:38.182Z,0
2016-04-15T03:47:38.216Z,0
2016-04-15T03:48:36.890Z,0
2016-04-15T03:49:49.565Z,0
2016-04-15T03:50:43.114Z,0
2016-04-15T03:52:27.386Z,0
2016-04-15T03:52:46.214Z,0
2016-04-15T03:54:55.750Z,0
2016-04-15T03:56:08.724Z,0
2016-04-15T03:58:17.479Z,0
2016-04-15T03:59:17.529Z,0
2016-04-15T04:00:30.297Z,0
2016-04-15T04:01:17.894Z,0
2016-04-15T04:02:36.741Z,0
2016-04-15T04:03:17.930Z,0
2016-04-15T04:04:43.261Z,0
2016-04-15T04:05:23.827Z,0
2016-04-15T04:08:01.504Z,0
2016-04-15T04:08:45.538Z,0
2016-04-15T04:09:32.821Z,0
2016-04-15T04:11:29.827Z,0
2016-04-15T04:12:01.608Z,0
2016-04-15T04:12:55.065Z,0
2016-04-15T04:15:04.260Z,0
2016-04-15T04:15:23.244Z,0
2016-04-15T04:17:13.828Z,0
2016-04-15T04:17:32.656Z,0
2016-04-15T04:18:26.487Z,0
2016-04-15T04:19:32.879Z,0
2016-04-15T04:20:32.695Z,0
2016-04-15T04:21:45.651Z,0
2016-04-15T04:22:39.200Z,0
2016-04-15T04:24:23.486Z,0
2016-04-15T04:24:55.174Z,0
2016-04-15T04:25:55.317Z,0
2016-04-15T04:26:48.961Z,0
2016-04-15T04:27:55.308Z,0
2016-04-15T04:29:01.842Z,0
2016-04-15T04:29:48.876Z,0
2016-04-15T04:31:07.506Z,0
2016-04-15T04:31:48.944Z,5
2016-04-15T04:32:36.181Z,5
2016-04-15T04:33:48.980Z,5
2016-04-15T04:34:36.827Z,5
2016-04-15T04:35:36.219Z,5
2016-04-15T04:36:36.254Z,5
2016-04-15T04:37:49.147Z,5
2016-04-15T04:38:42.618Z,5
2016-04-15T04:39:56.137Z,5
2016-04-15T04:40:43.232Z,0
2016-04-15T04:41:36.392Z,0
2016-04-15T04:42:49.113Z,0
2016-04-15T04:43:37.069Z,5
2016-04-15T04:44:49.135Z,5
2016-04-15T04:45:49.293Z,5
2016-04-15T04:46:36.656Z,5
2016-04-15T04:48:33.411Z,5
2016-04-15T04:48:45.973Z,5
2016-04-15T04:49:46.210Z,5
2016-04-15T04:50:58.759Z,5
2016-04-15T04:51:47.529Z,5
2016-04-15T04:52:58.744Z,5
2016-04-15T04:54:05.222Z,5
2016-04-15T04:54:46.736Z,5
2016-04-15T04:55:47.354Z,10
2016-04-15T04:56:46.154Z,10
2016-04-15T04:57:52.422Z,10
2016-04-15T04:58:53.019Z,10
2016-04-15T05:01:01.931Z,15
2016-04-15T05:02:46.420Z,15
2016-04-15T05:03:55.986Z,15
2016-04-15T05:04:24.457Z,15
2016-04-15T05:05:08.585Z,10
2016-04-15T05:06:27.774Z,10
2016-04-15T05:07:08.605Z,10
2016-04-15T05:09:05.704Z,10
2016-04-15T05:11:45.069Z,10
2016-04-15T05:12:28.979Z,10
2016-04-15T05:13:29.060Z,10
2016-04-15T05:13:59.107Z,10
2016-04-15T05:14:57.780Z,10
2016-04-15T05:15:57.721Z,10
2016-04-15T05:17:10.476Z,15
2016-04-15T05:18:04.010Z,15
2016-04-15T05:20:07.500Z,20
2016-04-15T05:20:21.468Z,20
2016-04-15T05:21:20.159Z,25
2016-04-15T05:22:20.130Z,25
2016-04-15T05:23:20.133Z,30
2016-04-15T05:24:20.167Z,40
2016-04-15T05:25:20.153Z,45
2016-04-15T05:26:20.172Z,50
2016-04-15T05:27:20.190Z,60
2016-04-15T05:28:20.225Z,65
2016-04-15T05:29:20.212Z,70
2016-04-15T05:30:20.339Z,70
2016-04-15T05:31:20.264Z,65
2016-04-15T05:32:20.438Z,65
2016-04-15T05:33:20.285Z,65
2016-04-15T05:34:20.366Z,65
2016-04-15T05:35:20.336Z,65
2016-04-15T05:36:20.387Z,65
2016-04-15T05:37:33.108Z,65
2016-04-15T05:38:20.361Z,65
2016-04-15T05:39:20.395Z,65
2016-04-15T05:40:20.397Z,60
2016-04-15T05:41:20.557Z,60
2016-04-15T05:42:20.465Z,60
2016-04-15T05:43:20.499Z,65
2016-04-15T05:44:20.486Z,65
2016-04-15T05:45:20.520Z,70
2016-04-15T05:46:20.523Z,70
2016-04-15T05:47:21.135Z,75
2016-04-15T05:48:20.543Z,80
2016-04-15T05:49:20.421Z,80
2016-04-15T05:50:20.596Z,85
2016-04-15T05:51:20.645Z,90
2016-04-15T05:52:20.602Z,90
2016-04-15T05:53:20.667Z,95
2016-04-15T05:54:20.810Z,90
2016-04-15T05:55:20.673Z,90
2016-04-15T05:56:20.753Z,85
2016-04-15T05:57:20.725Z,85
2016-04-15T05:58:20.883Z,80
2016-04-15T05:59:20.745Z,80
2016-04-15T06:00:20.873Z,75
2016-04-15T06:01:20.766Z,75
2016-04-15T06:02:20.831Z,75
2016-04-15T06:03:20.818Z,75
2016-04-15T06:04:33.586Z,70
2016-04-15T06:05:20.855Z,70
2016-04-15T06:06:20.888Z,70
2016-04-15T06:07:20.922Z,70
2016-04-15T06:08:33.035Z,70
2016-04-15T06:09:20.928Z,70
2016-04-15T06:10:40.369Z,70
2016-04-15T06:11:33.794Z,70
2016-04-15T06:13:17.955Z,70
2016-04-15T06:15:27.273Z,75
2016-04-15T06:16:36.963Z,80
2016-04-15T06:17:02.291Z,85
2016-04-15T06:19:05.674Z,100
2016-04-15T06:19:18.237Z,100
2016-04-15T06:20:49.583Z,110
2016-04-15T06:21:30.810Z,115
2016-04-15T06:22:18.392Z,115
2016-04-15T06:24:21.586Z,120
2016-04-15T06:24:35.570Z,120
2016-04-15T06:25:34.166Z,120
2016-04-15T06:26:53.403Z,115
2016-04-15T06:27:35.613Z,115
2016-04-15T06:28:59.882Z,110
2016-04-15T06:29:53.556Z,110
2016-04-15T06:31:57.155Z,115
2016-04-15T06:32:41.049Z,115
2016-04-15T06:33:22.677Z,115
2016-04-15T06:34:16.383Z,115
2016-04-15T06:35:28.463Z,115
2016-04-15T06:36:29.122Z,110
2016-04-15T06:38:12.440Z,115
2016-04-15T06:38:31.268Z,115
2016-04-15T06:39:24.990Z,120
2016-04-15T06:40:37.789Z,120
2016-04-15T06:41:25.073Z,120
2016-04-15T06:43:22.047Z,125
2016-04-15T06:43:53.828Z,125
2016-04-15T06:47:34.714Z,130
2016-04-15T06:48:34.747Z,125
2016-04-15T06:49:35.361Z,120
2016-04-15T06:50:41.050Z,120
2016-04-15T06:51:41.069Z,120
2016-04-15T06:52:54.040Z,120
2016-04-15T06:53:47.371Z,120
2016-04-15T06:55:00.561Z,130
2016-04-15T06:56:25.379Z,130
2016-04-15T06:57:40.569Z,130
2016-04-15T06:58:07.463Z,130
2016-04-15T06:58:53.150Z,135
2016-04-15T07:00:12.375Z,140
2016-04-15T07:00:59.578Z,145
2016-04-15T07:02:50.255Z,145
2016-04-15T07:03:28.491Z,145
2016-04-15T07:04:15.635Z,135
2016-04-15T07:05:34.169Z,140
2016-04-15T07:06:09.187Z,140
2016-04-15T07:07:02.890Z,135
2016-04-15T07:08:15.693Z,125
2016-04-15T07:09:02.958Z,110
2016-04-15T07:10:22.432Z,100
2016-04-15T07:11:08.590Z,100
2016-04-15T07:12:02.981Z,100
2016-04-15T07:13:03.031Z,105
2016-04-15T07:14:09.303Z,110
2016-04-15T07:15:03.646Z,110
2016-04-15T07:16:03.243Z,110
2016-04-15T07:17:09.498Z,115
2016-04-15T07:18:03.123Z,125
2016-04-15T07:19:04.504Z,130
2016-04-15T07:20:09.444Z,135
2016-04-15T07:21:03.230Z,135
2016-04-15T07:22:03.247Z,130
2016-04-15T07:23:09.488Z,125
2016-04-15T07:24:09.490Z,120
2016-04-15T07:25:04.649Z,120
2016-04-15T07:26:22.464Z,120
2016-04-15T07:27:03.292Z,125
2016-04-15T07:28:22.522Z,130
2016-04-15T07:29:16.040Z,135
2016-04-15T07:30:03.368Z,135
2016-04-15T07:31:22.562Z,135
2016-04-15T07:32:04.814Z,135
2016-04-15T07:33:29.129Z,135
2016-04-15T07:34:03.660Z,135
2016-04-15T07:36:14.575Z,145
2016-04-15T07:37:27.311Z,150
2016-04-15T07:38:27.314Z,155
2016-04-15T07:39:33.833Z,165
2016-04-15T07:40:14.647Z,170
2016-04-15T07:42:11.622Z,175
2016-04-15T07:42:27.075Z,175
2016-04-15T07:43:24.234Z,180
2016-04-15T07:44:24.112Z,180
2016-04-15T07:45:24.177Z,180
2016-04-15T07:46:36.867Z,175
2016-04-15T07:47:24.369Z,175
2016-04-15T07:48:43.372Z,170
2016-04-15T07:49:24.172Z,165
2016-04-15T07:50:43.440Z,165
2016-04-15T07:51:24.240Z,165
2016-04-15T07:52:24.273Z,170
2016-04-15T07:53:24.260Z,175
2016-04-15T07:54:24.310Z,170
2016-04-15T07:55:30.984Z,170
2016-04-15T07:56:24.363Z,165
2016-04-15T07:57:43.724Z,160
2016-04-15T07:58:24.384Z,160
2016-04-15T07:59:50.042Z,160
2016-04-15T08:00:24.420Z,160
2016-04-15T08:02:30.831Z,155
2016-04-15T08:03:30.912Z,155
2016-04-15T08:04:43.993Z,165
2016-04-15T08:05:37.231Z,175
2016-04-15T08:07:21.518Z,180
2016-04-15T08:08:18.129Z,185
2016-04-15T08:08:34.129Z,190
2016-04-15T08:09:34.132Z,200
2016-04-15T08:10:34.166Z,210
2016-04-15T08:11:34.497Z,210
2016-04-15T08:12:34.203Z,220
2016-04-15T08:13:34.549Z,240
2016-04-15T08:14:40.473Z,255
2016-04-15T08:15:34.491Z,235
2016-04-15T08:16:34.276Z,210
2016-04-15T08:17:40.560Z,195
2016-04-15T08:18:34.313Z,195
2016-04-15T08:19:34.347Z,195
2016-04-15T08:20:34.568Z,195
2016-04-15T08:21:34.576Z,195
2016-04-15T08:22:34.392Z,205
2016-04-15T08:23:40.659Z,215
2016-04-15T08:24:34.787Z,225
2016-04-15T08:25:47.180Z,230
2016-04-15T08:26:35.902Z,235
2016-04-15T08:28:37.422Z,255
2016-04-15T08:29:56.786Z,270
2016-04-15T08:30:50.319Z,280
2016-04-15T08:31:37.640Z,280
2016-04-15T08:32:37.700Z,290
2016-04-15T08:33:37.761Z,290
2016-04-15T08:34:37.821Z,285
2016-04-15T08:35:50.727Z,290
2016-04-15T08:36:38.581Z,300
2016-04-15T08:38:03.662Z,310
2016-04-15T08:38:39.524Z,310
2016-04-15T08:40:09.372Z,325
2016-04-15T08:40:38.091Z,325
2016-04-15T08:41:38.092Z,320
2016-04-15T08:42:50.866Z,320
2016-04-15T08:43:38.968Z,325
2016-04-15T08:44:50.930Z,335
2016-04-15T08:45:38.219Z,340
2016-04-15T08:46:38.460Z,340
2016-04-15T08:47:38.262Z,345
2016-04-15T08:48:38.407Z,360
2016-04-15T08:49:51.052Z,370
2016-04-15T08:50:51.119Z,385
2016-04-15T08:51:57.593Z,395
2016-04-15T08:52:38.394Z,380
2016-04-15T08:53:38.428Z,360
2016-04-15T08:54:38.447Z,335
2016-04-15T08:55:38.466Z,315
2016-04-15T08:56:38.469Z,310
2016-04-15T08:57:38.503Z,295
2016-04-15T08:58:44.788Z,290
2016-04-15T08:59:38.542Z,280
2016-04-15T09:00:38.544Z,275
2016-04-15T09:01:51.390Z,275
2016-04-15T09:02:51.331Z,280
2016-04-15T09:04:04.428Z,285
2016-04-15T09:05:29.168Z,285
2016-04-15T09:06:13.061Z,280
2016-04-15T09:06:54.670Z,275
2016-04-15T09:07:41.814Z,265
2016-04-15T09:08:41.909Z,260
2016-04-15T09:09:41.850Z,235
2016-04-15T09:10:41.884Z,215
2016-04-15T09:11:42.074Z,190
2016-04-15T09:12:42.108Z,190
2016-04-15T09:13:42.125Z,200
2016-04-15T09:14:48.222Z,220
2016-04-15T09:15:54.710Z,245
2016-04-15T09:16:54.713Z,265
2016-04-15T09:18:51.733Z,285
2016-04-15T09:19:38.861Z,305
2016-04-15T09:20:04.330Z,315
2016-04-15T09:21:04.348Z,330
2016-04-15T09:22:05.010Z,310
2016-04-15T09:23:04.260Z,270
2016-04-15T09:24:10.718Z,240
2016-04-15T09:25:04.577Z,265
2016-04-15T09:26:17.224Z,270
2016-04-15T09:27:10.836Z,250
2016-04-15T09:29:39.763Z,210
2016-04-15T09:31:11.174Z,265
2016-04-15T09:32:20.709Z,270
2016-04-15T09:33:17.367Z,270
2016-04-15T09:33:59.008Z,270
2016-04-15T09:35:24.435Z,300
2016-04-15T09:36:08.313Z,325
2016-04-15T09:36:37.063Z,315
2016-04-15T09:37:38.301Z,360
2016-04-15T09:38:49.818Z,410
2016-04-15T09:39:37.087Z,415
2016-04-15T09:40:50.464Z,385
2016-04-15T09:41:37.123Z,335
2016-04-15T09:42:56.376Z,290
2016-04-15T09:43:37.160Z,255
2016-04-15T09:45:02.897Z,285
2016-04-15T09:45:49.961Z,340
2016-04-15T09:47:34.202Z,320
2016-04-15T09:47:59.546Z,305
2016-04-15T09:49:18.114Z,285
2016-04-15T09:50:06.038Z,290
2016-04-15T09:51:46.853Z,225
2016-04-15T09:52:46.902Z,185
2016-04-15T09:53:53.171Z,180
2016-04-15T09:54:59.674Z,185
2016-04-15T09:55:59.693Z,150
2016-04-15T09:57:06.183Z,135
2016-04-15T09:57:59.745Z,150
2016-04-15T09:59:38.391Z,180
2016-04-15T10:00:09.627Z,195
2016-04-15T10:02:19.742Z,240
2016-04-15T10:02:54.086Z,240
2016-04-15T10:03:55.510Z,200
2016-04-15T10:05:00.435Z,180
2016-04-15T10:06:06.878Z,150
2016-04-15T10:07:13.396Z,100
2016-04-15T10:09:10.387Z,80
2016-04-15T10:09:48.652Z,85
2016-04-15T10:11:23.032Z,100
2016-04-15T10:12:29.300Z,80
2016-04-15T10:13:23.053Z,75
2016-04-15T10:14:35.806Z,80
2016-04-15T10:15:29.449Z,80
2016-04-15T10:16:36.514Z,130
2016-04-15T10:17:23.141Z,145
2016-04-15T10:18:48.644Z,200
2016-04-15T10:19:35.897Z,170
2016-04-15T10:21:27.231Z,185
2016-04-15T10:21:39.841Z,190
2016-04-15T10:22:39.858Z,245
2016-04-15T10:23:52.627Z,305
2016-04-15T10:24:46.191Z,305
2016-04-15T10:25:39.929Z,315
2016-04-15T10:26:52.682Z,320
2016-04-15T10:27:46.185Z,290
2016-04-15T10:28:59.141Z,250
2016-04-15T10:29:48.285Z,240
2016-04-15T10:31:48.649Z,255
2016-04-15T10:32:04.165Z,250
2016-04-15T10:33:00.620Z,215
2016-04-15T10:34:14.000Z,225
2016-04-15T10:35:01.281Z,260
2016-04-15T10:36:51.803Z,300
2016-04-15T10:37:29.961Z,345
2016-04-15T10:39:38.951Z,480
2016-04-15T10:41:36.003Z,550
2016-04-15T10:42:07.881Z,560
2016-04-15T10:42:48.569Z,575
2016-04-15T10:43:48.618Z,630
2016-04-15T10:45:01.464Z,620
2016-04-15T10:45:49.420Z,625
2016-04-15T10:47:51.769Z,610
2016-04-15T10:50:27.028Z,520
2016-04-15T10:51:20.577Z,500
2016-04-15T10:52:01.405Z,480
2016-04-15T10:54:10.835Z,565
2016-04-15T10:55:36.682Z,595
2016-04-15T10:56:11.028Z,610
2016-04-15T10:57:11.141Z,585
2016-04-15T10:58:17.347Z,585
2016-04-15T10:59:17.365Z,635
2016-04-15T11:00:12.539Z,645
2016-04-15T11:01:23.871Z,660
2016-04-15T11:02:11.154Z,660
2016-04-15T11:03:30.219Z,670
2016-04-15T11:04:11.049Z,675
2016-04-15T11:05:11.240Z,685
2016-04-15T11:06:11.336Z,680
2016-04-15T11:07:24.042Z,670
2016-04-15T11:08:11.326Z,640
2016-04-15T11:09:30.548Z,595
2016-04-15T11:10:11.957Z,580
2016-04-15T11:11:11.397Z,510
2016-04-15T11:12:11.400Z,510
2016-04-15T11:13:11.449Z,505
2016-04-15T11:14:17.701Z,455
2016-04-15T11:15:11.486Z,390
2016-04-15T11:16:11.488Z,320
2016-04-15T11:17:18.475Z,310
2016-04-15T11:18:24.290Z,280
2016-04-15T11:19:30.777Z,290
2016-04-15T11:21:34.267Z,330
2016-04-15T11:22:18.208Z,335
2016-04-15T11:22:46.911Z,350
2016-04-15T11:23:46.897Z,310
2016-04-15T11:24:47.369Z,280
2016-04-15T11:25:47.121Z,225
2016-04-15T11:26:59.749Z,235
2016-04-15T11:27:46.986Z,225
2016-04-15T11:29:06.227Z,155
2016-04-15T11:29:47.039Z,140
2016-04-15T11:31:44.029Z,145
2016-04-15T11:31:56.779Z,135
2016-04-15T11:32:56.860Z,145
2016-04-15T11:33:56.643Z,165
2016-04-15T11:34:56.677Z,190
2016-04-15T11:35:58.118Z,235
2016-04-15T11:37:09.467Z,245
2016-04-15T11:37:56.748Z,240
2016-04-15T11:38:56.765Z,245
2016-04-15T11:39:56.769Z,245
2016-04-15T11:41:09.556Z,275
2016-04-15T11:42:03.321Z,305
2016-04-15T11:42:56.870Z,360
2016-04-15T11:44:09.626Z,420
2016-04-15T11:44:56.907Z,455
2016-04-15T11:45:58.441Z,515
2016-04-15T11:46:56.975Z,585
2016-04-15T11:47:57.025Z,535
2016-04-15T11:48:56.996Z,440
2016-04-15T11:49:57.655Z,375
2016-04-15T11:50:57.252Z,370
2016-04-15T11:51:57.066Z,375
2016-04-15T11:52:57.085Z,420
2016-04-15T11:53:57.775Z,375
2016-04-15T11:54:57.355Z,390
2016-04-15T11:55:57.155Z,445
2016-04-15T11:56:57.221Z,505
2016-04-15T11:57:57.380Z,480
2016-04-15T11:58:57.336Z,470
2016-04-15T11:59:57.432Z,480
2016-04-15T12:01:09.999Z,505
2016-04-15T12:01:57.187Z,540
2016-04-15T12:04:00.520Z,585
2016-04-15T12:05:13.292Z,600
2016-04-15T12:06:06.857Z,630
2016-04-15T12:07:15.422Z,700
2016-04-15T12:08:13.207Z,705
2016-04-15T12:09:26.037Z,685
2016-04-15T12:10:19.870Z,685
2016-04-15T12:11:00.714Z,640
2016-04-15T12:12:26.313Z,575
2016-04-15T12:13:00.719Z,610
2016-04-15T12:14:13.489Z,605
2016-04-15T12:15:00.786Z,555
2016-04-15T12:16:13.416Z,525
2016-04-15T12:17:13.514Z,525
2016-04-15T12:18:01.483Z,480
2016-04-15T12:19:26.582Z,475
2016-04-15T12:20:07.210Z,485
2016-04-15T12:21:00.960Z,545
2016-04-15T12:22:13.886Z,565
2016-04-15T12:23:00.996Z,540
2016-04-15T12:24:26.704Z,525
2016-04-15T12:25:07.535Z,520
2016-04-15T12:27:03.719Z,425
2016-04-15T12:27:16.628Z,410
2016-04-15T12:28:16.193Z,390
2016-04-15T12:29:16.368Z,405
2016-04-15T12:30:16.387Z,380
2016-04-15T12:31:16.592Z,350
2016-04-15T12:32:29.283Z,325
2016-04-15T12:33:16.644Z,300
2016-04-15T12:34:35.663Z,295
2016-04-15T12:35:22.775Z,315
2016-04-15T12:36:42.262Z,345
2016-04-15T12:37:29.312Z,365
2016-04-15T12:39:16.567Z,400
2016-04-15T12:40:16.616Z,405
2016-04-15T12:41:23.041Z,405
2016-04-15T12:42:16.685Z,375
2016-04-15T12:43:16.827Z,385
2016-04-15T12:44:16.736Z,425
2016-04-15T12:45:18.285Z,445
2016-04-15T12:46:22.899Z,475
2016-04-15T12:47:29.776Z,490
2016-04-15T12:48:29.560Z,470
2016-04-15T12:49:36.063Z,465
2016-04-15T12:50:29.612Z,495
2016-04-15T12:51:42.677Z,405
2016-04-15T12:52:16.914Z,355
2016-04-15T12:53:42.620Z,305
2016-04-15T12:54:29.809Z,275
2016-04-15T12:55:48.312Z,365
2016-04-15T12:56:17.081Z,390
2016-04-15T12:58:14.040Z,335
2016-04-15T12:58:26.634Z,295
2016-04-15T13:00:26.654Z,300
2016-04-15T13:01:28.110Z,315
2016-04-15T13:02:39.519Z,240
2016-04-15T13:03:26.725Z,170
2016-04-15T13:04:45.994Z,90
2016-04-15T13:05:26.778Z,85
2016-04-15T13:06:26.843Z,105
2016-04-15T13:07:33.158Z,110
2016-04-15T13:08:26.864Z,95
2016-04-15T13:09:26.132Z,85
2016-04-15T13:10:39.713Z,85
2016-04-15T13:11:27.090Z,70
2016-04-15T13:12:46.171Z,70
2016-04-15T13:13:27.018Z,80
2016-04-15T13:14:52.677Z,165
2016-04-15T13:15:39.758Z,220
2016-04-15T13:16:27.057Z,250
2016-04-15T13:17:46.325Z,260
2016-04-15T13:18:33.958Z,260
2016-04-15T13:19:52.773Z,260
2016-04-15T13:20:27.120Z,260
2016-04-15T13:21:58.653Z,255
2016-04-15T13:22:27.921Z,265
2016-04-15T13:23:27.221Z,290
2016-04-15T13:24:33.506Z,310
2016-04-15T13:25:27.258Z,335
2016-04-15T13:26:27.370Z,365
2016-04-15T13:27:27.310Z,390
2016-04-15T13:28:27.906Z,360
2016-04-15T13:29:40.065Z,340
2016-04-15T13:30:28.771Z,355
2016-04-15T13:31:52.899Z,370
2016-04-15T13:32:26.698Z,365
2016-04-15T13:33:27.576Z,395
2016-04-15T13:34:27.486Z,410
2016-04-15T13:35:27.769Z,455
2016-04-15T13:36:40.256Z,445
2016-04-15T13:37:27.525Z,410
2016-04-15T13:38:46.746Z,410
2016-04-15T13:39:27.561Z,405
2016-04-15T13:40:27.579Z,405
2016-04-15T13:41:33.910Z,420
2016-04-15T13:42:27.881Z,445
2016-04-15T13:43:27.665Z,460
2016-04-15T13:44:27.043Z,445
2016-04-15T13:45:27.718Z,450
2016-04-15T13:46:27.783Z,460
2016-04-15T13:47:33.927Z,485
2016-04-15T13:48:40.523Z,495
2016-04-15T13:49:40.510Z,530
2016-04-15T13:50:47.043Z,520
2016-04-15T13:51:27.860Z,465
2016-04-15T13:52:53.534Z,400
2016-04-15T13:53:27.896Z,410
2016-04-15T13:54:27.914Z,410
2016-04-15T13:55:27.948Z,460
2016-04-15T13:56:40.701Z,495
2016-04-15T13:57:28.015Z,525
2016-04-15T13:58:53.659Z,515
2016-04-15T13:59:28.833Z,545
2016-04-15T14:00:28.055Z,525
2016-04-15T14:01:28.198Z,465
2016-04-15T14:02:28.139Z,400
2016-04-15T14:03:28.126Z,390
2016-04-15T14:04:28.175Z,380
2016-04-15T14:05:29.444Z,340
2016-04-15T14:06:40.961Z,385
2016-04-15T14:07:28.074Z,385
2016-04-15T14:09:25.235Z,335
2016-04-15T14:09:37.829Z,330
2016-04-15T14:10:37.832Z,350
2016-04-15T14:11:44.146Z,335
2016-04-15T14:12:44.166Z,315
2016-04-15T14:13:38.512Z,315
2016-04-15T14:14:50.655Z,325
2016-04-15T14:15:37.955Z,345
2016-04-15T14:16:37.973Z,370
2016-04-15T14:17:38.929Z,415
2016-04-15T14:18:38.150Z,375
2016-04-15T14:19:39.560Z,345
2016-04-15T14:20:50.797Z,265
2016-04-15T14:21:57.330Z,250
2016-04-15T14:22:57.365Z,255
2016-04-15T14:24:09.495Z,215
2016-04-15T14:24:38.198Z,215
2016-04-15T14:25:38.201Z,230
2016-04-15T14:26:38.906Z,290
2016-04-15T14:27:38.831Z,315
2016-04-15T14:28:38.270Z,310
2016-04-15T14:29:51.071Z,365
2016-04-15T14:30:44.870Z,390
2016-04-15T14:31:57.545Z,430
2016-04-15T14:32:57.595Z,445
2016-04-15T14:34:09.694Z,405
2016-04-15T14:34:57.615Z,365
2016-04-15T14:36:08.949Z,345
2016-04-15T14:36:57.636Z,265
2016-04-15T14:38:57.829Z,255
2016-04-15T14:39:51.269Z,280
2016-04-15T14:41:04.210Z,250
2016-04-15T14:43:50.499Z,250
2016-04-15T14:44:15.845Z,305
2016-04-15T14:45:13.004Z,340
2016-04-15T14:46:25.851Z,390
2016-04-15T14:47:13.682Z,420
2016-04-15T14:48:32.294Z,335
2016-04-15T14:49:13.890Z,285
2016-04-15T14:50:32.940Z,290
2016-04-15T14:51:13.160Z,335
2016-04-15T14:52:13.184Z,330
2016-04-15T14:53:26.031Z,325
2016-04-15T14:54:14.064Z,325